Time;durP1;ratioP1;P1;durP2;ratioP2;P2;SDS_P1;SDS_P2;PMS_P1;PMS_P2;Temp;Humidity;BMP_temperature;BMP_pressure;BME280_temperature;BME280_humidity;BME280_pressure;Samples;Min_cycle;Max_cycle;Signal;HPM_P1;HPM_P2
2020/12/24 00:02:23;;;;;;;17.03;13.57;;;10.00;99.90;;;;;;5029386;28;20483;-85
2020/12/24 00:04:49;;;;;;;17.93;14.47;;;10.10;99.90;;;;;;5033806;28;20486;-85
2020/12/24 00:07:17;;;;;;;16.90;13.00;;;10.10;99.90;;;;;;5032151;28;20527;-85
2020/12/24 00:09:45;;;;;;;15.43;12.93;;;10.20;99.90;;;;;;5029071;28;20565;-87
2020/12/24 00:12:11;;;;;;;20.97;14.53;;;10.20;99.90;;;;;;5026886;28;20449;-86
2020/12/24 00:14:38;;;;;;;14.93;12.97;;;10.20;99.90;;;;;;5033890;28;20447;-84
2020/12/24 00:17:05;;;;;;;13.57;11.70;;;10.10;99.90;;;;;;5028459;28;20455;-87
2020/12/24 00:19:31;;;;;;;14.23;11.43;;;10.20;99.90;;;;;;5028553;28;20485;-86
2020/12/24 00:21:57;;;;;;;17.00;12.23;;;10.20;99.90;;;;;;5027070;28;20458;-87
2020/12/24 00:24:25;;;;;;;12.37;9.80;;;10.30;99.90;;;;;;5028700;28;20502;-86
2020/12/24 00:26:51;;;;;;;14.17;10.33;;;10.30;99.90;;;;;;5030267;28;20479;-86
2020/12/24 00:29:17;;;;;;;12.40;10.10;;;10.30;99.90;;;;;;5026118;28;20587;-87
2020/12/24 00:31:44;;;;;;;11.10;10.00;;;10.30;99.90;;;;;;5030684;28;20448;-85
2020/12/24 00:34:10;;;;;;;9.47;8.50;;;10.40;99.90;;;;;;5034699;28;20469;-85
2020/12/24 00:36:36;;;;;;;10.17;7.87;;;10.30;99.90;;;;;;5035117;28;20463;-85
2020/12/24 00:39:07;;;;;;;8.23;7.43;;;10.30;99.90;;;;;;5034568;28;20467;-85
2020/12/24 00:41:34;;;;;;;9.30;7.87;;;10.40;99.90;;;;;;5034452;28;20448;-86
2020/12/24 00:44:01;;;;;;;7.73;6.93;;;10.40;99.90;;;;;;5027125;28;20478;-85
2020/12/24 00:46:27;;;;;;;7.10;6.50;;;10.40;99.90;;;;;;5021758;28;20464;-84
2020/12/24 00:49:03;;;;;;;8.00;7.20;;;10.50;99.90;;;;;;5022516;28;20491;-85
2020/12/24 00:51:33;;;;;;;7.93;6.77;;;10.50;99.90;;;;;;5023566;28;20458;-85
2020/12/24 00:54:00;;;;;;;10.90;6.80;;;10.40;99.90;;;;;;5022662;28;20447;-87
2020/12/24 00:56:26;;;;;;;7.73;6.37;;;10.40;99.90;;;;;;5022658;28;20462;-86
2020/12/24 00:58:53;;;;;;;6.40;5.80;;;10.50;99.90;;;;;;5024581;28;20467;-85
2020/12/24 01:01:20;;;;;;;8.00;6.13;;;10.40;99.90;;;;;;5024711;28;20447;-85
2020/12/24 01:03:46;;;;;;;6.70;6.10;;;10.40;99.90;;;;;;5024368;28;20771;-87
2020/12/24 01:06:13;;;;;;;6.30;5.70;;;10.30;99.90;;;;;;5031171;28;20467;-85
2020/12/24 01:08:39;;;;;;;5.77;5.13;;;10.30;99.90;;;;;;5033567;28;20576;-87
2020/12/24 01:11:07;;;;;;;5.43;4.93;;;10.20;99.90;;;;;;5035006;28;20546;-86
2020/12/24 01:13:35;;;;;;;6.20;5.60;;;10.20;99.90;;;;;;5036562;28;20461;-86
2020/12/24 01:16:03;;;;;;;5.40;4.73;;;10.20;99.90;;;;;;5029275;28;20455;-87
2020/12/24 01:18:29;;;;;;;5.03;4.43;;;10.10;99.90;;;;;;5026812;28;20540;-86
2020/12/24 01:20:55;;;;;;;4.67;4.20;;;10.10;99.90;;;;;;5026495;28;20459;-88
2020/12/24 01:23:22;;;;;;;5.10;4.67;;;10.10;99.90;;;;;;5024922;28;20508;-86
2020/12/24 01:25:53;;;;;;;4.53;3.90;;;10.20;99.90;;;;;;5028795;28;20418;-86
2020/12/24 01:28:20;;;;;;;5.50;5.00;;;10.20;99.90;;;;;;5028954;28;20478;-86
2020/12/24 01:30:46;;;;;;;4.20;3.80;;;10.20;99.90;;;;;;5028002;28;20579;-86
2020/12/24 01:33:13;;;;;;;4.47;4.10;;;10.30;99.90;;;;;;5030068;28;20480;-85
2020/12/24 01:35:40;;;;;;;4.03;3.73;;;10.20;99.90;;;;;;5025360;28;20967;-87
2020/12/24 01:38:06;;;;;;;4.10;3.77;;;10.30;99.90;;;;;;5025957;28;20479;-87
2020/12/24 01:40:32;;;;;;;4.07;3.77;;;10.30;99.90;;;;;;5026226;28;20449;-87
2020/12/24 01:42:58;;;;;;;3.90;3.60;;;10.30;99.90;;;;;;5025719;28;20464;-88
2020/12/24 01:45:25;;;;;;;4.00;3.70;;;10.30;99.90;;;;;;5027975;28;20451;-87
2020/12/24 01:47:51;;;;;;;3.70;3.40;;;10.20;99.90;;;;;;5026079;28;20467;-87
2020/12/24 01:50:18;;;;;;;3.80;3.50;;;10.20;99.90;;;;;;5027855;28;20558;-88
2020/12/24 01:52:49;;;;;;;4.57;4.17;;;10.10;99.90;;;;;;5028544;28;20444;-86
2020/12/24 01:55:15;;;;;;;4.33;3.83;;;10.20;99.90;;;;;;5025967;28;20432;-86
2020/12/24 01:57:43;;;;;;;4.50;3.97;;;10.10;99.90;;;;;;5029131;28;20478;-86
2020/12/24 02:00:10;;;;;;;4.00;3.70;;;9.90;99.90;;;;;;5031696;28;20561;-86
2020/12/24 02:02:37;;;;;;;4.50;4.10;;;10.00;99.90;;;;;;5032249;28;20479;-84
2020/12/24 02:05:09;;;;;;;4.10;3.70;;;9.90;99.90;;;;;;5036457;28;20455;-84
2020/12/24 02:07:37;;;;;;;4.43;4.03;;;9.90;99.90;;;;;;5035091;28;20443;-86
2020/12/24 02:10:03;;;;;;;4.50;4.20;;;9.90;99.90;;;;;;5032263;28;20526;-85
2020/12/24 02:12:30;;;;;;;3.80;3.50;;;9.90;99.90;;;;;;5034467;28;20529;-84
2020/12/24 02:14:56;;;;;;;4.07;3.73;;;9.90;99.90;;;;;;5035092;28;20523;-87
2020/12/24 02:17:22;;;;;;;5.03;4.53;;;9.80;99.90;;;;;;5033780;28;20604;-85
2020/12/24 02:19:51;;;;;;;4.33;3.73;;;9.80;99.90;;;;;;5033325;22;20505;-81
2020/12/24 02:22:19;;;;;;;5.90;4.00;;;9.70;99.90;;;;;;5017922;28;20790;-80
2020/12/24 02:24:45;;;;;;;8.17;4.80;;;9.70;99.90;;;;;;5017874;28;20534;-82
2020/12/24 02:27:12;;;;;;;4.60;4.20;;;9.70;99.90;;;;;;5018046;28;21035;-80
2020/12/24 02:29:38;;;;;;;5.40;5.00;;;9.70;99.90;;;;;;5018022;28;20491;-81
2020/12/24 02:32:05;;;;;;;5.50;4.90;;;9.70;99.90;;;;;;5017785;28;20451;-81
2020/12/24 02:34:31;;;;;;;5.27;4.87;;;9.70;99.90;;;;;;5017634;28;20448;-81
2020/12/24 02:36:57;;;;;;;5.37;4.83;;;9.70;99.90;;;;;;5017751;28;20458;-80
2020/12/24 02:39:25;;;;;;;5.23;4.73;;;9.70;99.90;;;;;;5016590;28;20975;-81
2020/12/24 02:41:51;;;;;;;5.77;5.27;;;9.70;99.90;;;;;;5016883;28;20458;-80
2020/12/24 02:44:18;;;;;;;6.10;5.60;;;9.70;99.90;;;;;;5017564;28;20421;-80
2020/12/24 02:46:44;;;;;;;6.10;5.50;;;9.70;99.90;;;;;;5016814;28;20807;-81
2020/12/24 02:49:10;;;;;;;6.40;5.90;;;9.70;99.90;;;;;;5026635;28;20513;-81
2020/12/24 02:51:37;;;;;;;6.50;6.00;;;9.80;99.90;;;;;;5039017;28;20450;-81
2020/12/24 02:54:03;;;;;;;5.73;5.23;;;9.80;99.90;;;;;;5038980;28;20474;-80
2020/12/24 02:56:30;;;;;;;7.93;5.10;;;9.80;99.90;;;;;;5025296;28;20958;-80
2020/12/24 02:58:57;;;;;;;5.53;5.03;;;9.80;99.90;;;;;;5017826;28;20459;-80
2020/12/24 03:01:23;;;;;;;5.60;5.10;;;9.70;99.90;;;;;;5018026;28;20462;-80
2020/12/24 03:03:49;;;;;;;5.00;4.50;;;9.80;99.90;;;;;;5017342;28;20533;-80
2020/12/24 03:06:16;;;;;;;4.83;4.40;;;9.80;99.90;;;;;;5017039;28;20548;-81
2020/12/24 03:08:42;;;;;;;6.30;4.60;;;9.90;99.90;;;;;;5016965;28;20467;-80
2020/12/24 03:11:08;;;;;;;4.70;4.30;;;9.90;99.90;;;;;;5016896;28;20982;-81
2020/12/24 03:13:35;;;;;;;5.43;4.93;;;9.90;99.90;;;;;;5016816;28;20451;-80
2020/12/24 03:16:02;;;;;;;4.73;4.33;;;9.90;99.90;;;;;;5017586;28;20458;-80
2020/12/24 03:18:28;;;;;;;5.53;4.30;;;9.80;99.90;;;;;;5016649;28;20474;-81
2020/12/24 03:20:54;;;;;;;5.33;4.43;;;9.90;99.90;;;;;;5016135;28;20783;-80
2020/12/24 03:23:21;;;;;;;4.30;4.00;;;9.90;99.90;;;;;;5016985;28;20898;-81
2020/12/24 03:25:47;;;;;;;5.27;4.77;;;9.90;99.90;;;;;;5016206;28;20451;-81
2020/12/24 03:28:13;;;;;;;4.53;4.03;;;9.90;99.90;;;;;;5016189;28;20452;-81
2020/12/24 03:30:40;;;;;;;6.40;4.70;;;10.00;99.90;;;;;;5015941;28;20486;-81
2020/12/24 03:33:07;;;;;;;4.33;4.03;;;10.00;99.90;;;;;;5014884;28;20450;-81
2020/12/24 03:35:33;;;;;;;4.90;3.90;;;9.90;99.90;;;;;;5015664;28;20978;-81
2020/12/24 03:37:59;;;;;;;3.60;3.30;;;9.90;99.90;;;;;;5016346;28;20451;-81
2020/12/24 03:40:25;;;;;;;4.13;3.80;;;10.00;99.90;;;;;;5015206;28;20444;-81
2020/12/24 03:42:52;;;;;;;3.70;3.33;;;10.00;99.90;;;;;;5015786;28;20546;-81
2020/12/24 03:45:18;;;;;;;4.63;4.17;;;10.00;99.90;;;;;;5015544;28;20523;-82
2020/12/24 03:47:45;;;;;;;4.60;3.73;;;10.10;99.90;;;;;;5016040;28;20534;-81
2020/12/24 03:50:12;;;;;;;4.37;4.07;;;10.10;99.90;;;;;;5016869;28;20693;-81
2020/12/24 03:52:38;;;;;;;3.53;3.00;;;10.20;99.90;;;;;;5016002;28;20517;-81
2020/12/24 03:55:04;;;;;;;3.00;2.80;;;10.10;99.90;;;;;;5015660;28;20593;-81
2020/12/24 03:57:31;;;;;;;2.73;2.53;;;10.10;99.90;;;;;;5015207;28;20455;-81
2020/12/24 03:59:57;;;;;;;8.30;3.17;;;10.00;99.90;;;;;;5015273;28;20550;-81
2020/12/24 04:02:23;;;;;;;3.17;2.97;;;10.00;99.90;;;;;;5015579;28;20492;-81
2020/12/24 04:04:50;;;;;;;4.53;4.13;;;9.90;99.90;;;;;;5015370;28;20581;-81
2020/12/24 04:07:19;;;;;;;3.57;3.27;;;9.90;99.90;;;;;;5016016;28;20496;-82
2020/12/24 04:09:46;;;;;;;3.43;3.13;;;10.00;99.90;;;;;;5015463;28;20487;-81
2020/12/24 04:12:12;;;;;;;6.53;3.30;;;10.10;99.90;;;;;;5015446;28;20798;-81
2020/12/24 04:14:38;;;;;;;2.97;2.77;;;10.00;99.90;;;;;;5015173;28;20453;-81
2020/12/24 04:17:05;;;;;;;2.87;2.60;;;10.00;99.90;;;;;;5015531;28;20508;-81
2020/12/24 04:19:31;;;;;;;2.93;2.70;;;10.00;99.90;;;;;;5015269;28;20479;-81
2020/12/24 04:21:58;;;;;;;3.37;2.47;;;9.90;99.90;;;;;;5015555;28;20833;-81
2020/12/24 04:24:24;;;;;;;3.37;2.53;;;9.90;99.90;;;;;;5015321;28;20947;-81
2020/12/24 04:26:54;;;;;;;4.60;2.60;;;9.90;99.90;;;;;;5015223;28;20447;-81
2020/12/24 04:29:21;;;;;;;4.37;2.40;;;9.90;99.90;;;;;;5015612;28;20497;-81
2020/12/24 04:31:47;;;;;;;2.40;2.30;;;9.90;99.90;;;;;;5014935;28;20979;-81
2020/12/24 04:34:13;;;;;;;3.33;2.97;;;9.80;99.90;;;;;;5014986;28;20447;-80
2020/12/24 04:36:40;;;;;;;2.80;2.60;;;9.80;99.90;;;;;;5015229;28;20455;-80
2020/12/24 04:39:07;;;;;;;3.47;2.67;;;9.70;99.90;;;;;;5014735;28;20471;-80
2020/12/24 04:41:35;;;;;;;2.33;2.13;;;9.70;99.90;;;;;;5014640;28;20959;-80
2020/12/24 04:44:01;;;;;;;2.17;2.07;;;9.60;99.90;;;;;;5015231;28;20436;-81
2020/12/24 04:46:30;;;;;;;3.37;3.17;;;9.50;99.90;;;;;;5018865;28;20451;-81
2020/12/24 04:48:58;;;;;;;3.00;2.80;;;9.60;99.90;;;;;;5018873;28;20475;-81
2020/12/24 04:51:25;;;;;;;5.27;2.80;;;9.50;99.90;;;;;;5019132;28;20447;-81
2020/12/24 04:53:52;;;;;;;2.73;2.50;;;9.60;99.90;;;;;;5018882;28;20542;-81
2020/12/24 04:56:19;;;;;;;2.60;2.20;;;9.60;99.90;;;;;;5018979;28;20501;-81
2020/12/24 04:58:45;;;;;;;2.73;2.43;;;9.60;99.90;;;;;;5018356;28;20483;-80
2020/12/24 05:01:14;;;;;;;6.50;2.40;;;9.60;99.90;;;;;;5018900;28;20443;-80
2020/12/24 05:03:41;;;;;;;3.87;2.30;;;9.60;99.90;;;;;;5018461;28;20451;-80
2020/12/24 05:06:15;;;;;;;2.92;2.00;;;9.60;99.90;;;;;;5016979;28;20447;-80
2020/12/24 05:08:49;;;;;;;7.87;2.77;;;9.60;99.90;;;;;;5018062;28;20219;-80
2020/12/24 05:11:15;;;;;;;3.33;2.73;;;9.60;99.90;;;;;;5018800;28;20522;-80
2020/12/24 05:13:43;;;;;;;2.70;2.40;;;9.60;99.90;;;;;;5018028;28;20461;-80
2020/12/24 05:16:14;;;;;;;3.40;2.60;;;9.70;99.90;;;;;;5017711;28;20446;-81
2020/12/24 05:18:40;;;;;;;6.17;3.63;;;9.70;99.90;;;;;;5017520;28;20483;-80
2020/12/24 05:21:07;;;;;;;5.03;2.40;;;9.70;99.90;;;;;;5018334;28;20422;-80
2020/12/24 05:23:33;;;;;;;3.17;2.77;;;9.70;99.90;;;;;;5020792;28;20458;-81
2020/12/24 05:25:59;;;;;;;3.38;1.90;;;9.70;99.90;;;;;;5022396;28;20434;-81
2020/12/24 05:28:27;;;;;;;3.53;2.50;;;9.70;99.90;;;;;;5024835;28;20255;-81
2020/12/24 05:30:56;;;;;;;2.73;1.80;;;9.70;99.90;;;;;;5032149;28;20485;-81
2020/12/24 05:33:27;;;;;;;2.50;2.40;;;9.70;99.90;;;;;;5041240;28;20507;-81
2020/12/24 05:35:53;;;;;;;2.20;2.07;;;9.70;99.90;;;;;;5040427;28;20461;-82
2020/12/24 05:38:32;;;;;;;6.50;5.03;;;9.60;99.90;;;;;;5019086;28;20999;-82
2020/12/24 05:40:59;;;;;;;3.20;2.90;;;9.60;99.90;;;;;;5019437;28;20509;-81
2020/12/24 05:43:25;;;;;;;8.53;2.30;;;9.60;99.90;;;;;;5018745;28;20481;-81
2020/12/24 05:46:04;;;;;;;3.63;1.97;;;9.60;99.90;;;;;;5019056;28;20458;-81
2020/12/24 05:48:33;;;;;;;5.37;2.93;;;9.60;99.90;;;;;;5021097;28;20475;-82
2020/12/24 05:51:00;;;;;;;2.07;1.90;;;9.60;99.90;;;;;;5041293;28;20490;-81
2020/12/24 05:53:26;;;;;;;2.07;1.97;;;9.70;99.90;;;;;;5041112;28;20439;-82
2020/12/24 05:55:54;;;;;;;2.53;2.33;;;9.60;99.90;;;;;;5028628;28;20904;-82
2020/12/24 05:58:25;;;;;;;3.83;2.50;;;9.60;99.90;;;;;;5023966;28;20471;-81
2020/12/24 06:00:56;;;;;;;4.90;2.47;;;9.60;99.90;;;;;;5027190;28;20438;-81
2020/12/24 06:03:35;;;;;;;7.40;2.27;;;9.60;99.90;;;;;;5028584;28;20438;-81
2020/12/24 06:06:04;;;;;;;4.10;2.40;;;9.60;99.90;;;;;;5026381;28;21000;-82
2020/12/24 06:08:31;;;;;;;4.50;2.10;;;9.60;99.90;;;;;;5026076;28;20498;-82
2020/12/24 06:11:09;;;;;;;3.33;2.00;;;9.50;99.90;;;;;;5028745;28;20513;-82
2020/12/24 06:13:40;;;;;;;4.77;1.87;;;9.50;99.90;;;;;;5028188;28;20466;-82
2020/12/24 06:16:08;;;;;;;4.20;1.60;;;9.50;99.90;;;;;;5021899;28;20489;-81
2020/12/24 06:18:37;;;;;;;2.07;1.90;;;9.50;99.90;;;;;;5021657;28;20550;-82
2020/12/24 06:21:07;;;;;;;4.40;2.10;;;9.50;99.90;;;;;;5021027;28;20478;-81
2020/12/24 06:23:37;;;;;;;3.40;1.70;;;9.60;99.90;;;;;;5018436;28;20457;-81
2020/12/24 06:26:06;;;;;;;2.60;1.70;;;9.50;99.90;;;;;;5020160;28;20465;-81
2020/12/24 06:28:34;;;;;;;4.03;1.80;;;9.40;99.90;;;;;;5017816;28;20477;-81
2020/12/24 06:31:01;;;;;;;2.13;1.80;;;9.30;99.90;;;;;;5018120;28;20510;-81
2020/12/24 06:33:28;;;;;;;4.57;2.03;;;9.20;99.90;;;;;;5018173;28;20455;-81
2020/12/24 06:35:56;;;;;;;1.85;1.65;;;9.20;99.90;;;;;;5017483;28;20371;-81
2020/12/24 06:38:46;;;;;;;3.00;1.95;;;9.20;99.90;;;;;;5017430;28;20228;-82
2020/12/24 06:41:27;;;;;;;2.88;1.98;;;9.20;99.90;;;;;;5017521;28;20208;-81
2020/12/24 06:43:54;;;;;;;4.72;1.95;;;9.10;99.90;;;;;;5017627;28;20188;-81
2020/12/24 06:46:20;;;;;;;5.15;2.67;;;9.10;99.90;;;;;;5017062;28;20208;-81
2020/12/24 06:49:00;;;;;;;4.72;2.30;;;9.10;99.90;;;;;;5017451;28;20224;-82
2020/12/24 06:51:47;;;;;;;4.30;1.63;;;9.00;99.90;;;;;;5016742;28;20858;-81
2020/12/24 06:54:23;;;;;;;4.03;2.15;;;9.00;99.90;;;;;;5017404;28;20195;-81
2020/12/24 06:57:10;;;;;;;3.33;2.20;;;9.00;99.90;;;;;;5016488;28;20451;-81
2020/12/24 06:59:36;;;;;;;4.97;1.75;;;8.90;99.90;;;;;;5016397;28;20228;-81
2020/12/24 07:02:04;;;;;;;3.63;2.40;;;8.80;99.90;;;;;;5016778;28;20703;-81
2020/12/24 07:04:38;;;;;;;3.58;2.38;;;8.70;99.90;;;;;;5017195;28;20447;-80
2020/12/24 07:07:06;;;;;;;9.40;2.53;;;8.70;99.90;;;;;;5015381;28;20619;-81
2020/12/24 07:09:43;;;;;;;3.35;2.15;;;8.70;99.90;;;;;;5016340;28;20224;-82
2020/12/24 07:12:10;;;;;;;5.47;2.63;;;8.70;99.90;;;;;;5016401;28;20211;-81
2020/12/24 07:14:38;;;;;;;4.70;2.00;;;8.70;99.90;;;;;;5016144;28;20587;-82
2020/12/24 07:17:10;;;;;;;5.45;2.50;;;8.70;99.90;;;;;;5016910;28;20204;-81
2020/12/24 07:19:39;;;;;;;6.80;2.03;;;8.60;99.90;;;;;;5015928;28;20228;-81
2020/12/24 07:22:08;;;;;;;2.38;1.92;;;8.60;99.90;;;;;;5016483;28;20455;-81
2020/12/24 07:24:35;;;;;;;3.75;1.80;;;8.60;99.90;;;;;;5016024;28;20641;-81
2020/12/24 07:27:03;;;;;;;4.22;1.80;;;8.50;99.90;;;;;;5015700;28;20230;-81
2020/12/24 07:29:31;;;;;;;4.30;1.88;;;8.50;99.90;;;;;;5016124;28;20220;-81
2020/12/24 07:32:01;;;;;;;2.92;1.70;;;8.40;99.90;;;;;;5018444;28;20206;-81
2020/12/24 07:34:30;;;;;;;8.90;2.20;;;8.40;99.90;;;;;;5015991;28;20280;-81
2020/12/24 07:36:57;;;;;;;4.25;1.73;;;8.30;99.90;;;;;;5018429;28;20299;-81
2020/12/24 07:39:24;;;;;;;2.45;1.83;;;8.30;99.90;;;;;;5017142;28;20228;-81
2020/12/24 07:41:50;;;;;;;3.28;1.38;;;8.20;99.90;;;;;;5016956;28;20250;-81
2020/12/24 07:44:18;;;;;;;3.78;2.00;;;8.20;99.90;;;;;;5017436;28;20223;-81
2020/12/24 07:46:45;;;;;;;3.20;1.63;;;8.30;99.90;;;;;;5016805;28;20208;-81
2020/12/24 07:49:12;;;;;;;3.50;1.80;;;8.20;99.90;;;;;;5017068;28;20232;-82
2020/12/24 07:51:39;;;;;;;4.75;2.58;;;8.30;99.90;;;;;;5016856;28;20447;-82
2020/12/24 07:54:07;;;;;;;6.05;2.15;;;8.20;99.90;;;;;;5016368;28;20196;-82
2020/12/24 07:56:35;;;;;;;2.10;1.20;;;8.20;99.90;;;;;;5026639;28;20271;-82
2020/12/24 07:59:02;;;;;;;4.35;2.03;;;8.10;99.90;;;;;;5021725;28;20224;-82
2020/12/24 08:01:29;;;;;;;2.40;1.90;;;8.10;99.90;;;;;;5024925;28;20684;-82
2020/12/24 08:04:00;;;;;;;2.47;2.00;;;8.10;99.90;;;;;;5025377;28;20227;-82
2020/12/24 08:06:26;;;;;;;3.85;2.05;;;8.10;99.90;;;;;;5026706;28;20676;-82
2020/12/24 08:08:53;;;;;;;4.20;2.55;;;8.20;99.90;;;;;;5026340;28;20295;-82
2020/12/24 08:11:20;;;;;;;4.35;3.67;;;8.30;99.90;;;;;;5027883;28;20216;-82
2020/12/24 08:13:47;;;;;;;6.28;2.80;;;8.30;99.90;;;;;;5030565;28;20204;-82
2020/12/24 08:16:14;;;;;;;7.18;2.90;;;8.30;99.90;;;;;;5030233;28;20291;-82
2020/12/24 08:18:46;;;;;;;2.80;1.60;;;8.30;99.90;;;;;;5025756;28;20240;-82
2020/12/24 08:21:22;;;;;;;4.05;1.70;;;8.20;99.90;;;;;;5022412;28;20230;-82
2020/12/24 08:23:51;;;;;;;5.38;1.65;;;8.30;99.90;;;;;;5017219;28;20192;-82
2020/12/24 08:26:20;;;;;;;3.78;2.13;;;8.30;99.90;;;;;;5019525;28;20291;-82
2020/12/24 08:28:54;;;;;;;7.80;2.00;;;8.30;99.90;;;;;;5017868;28;20312;-81
2020/12/24 08:31:22;;;;;;;3.70;1.42;;;8.40;99.90;;;;;;5017323;28;20194;-82
2020/12/24 08:33:50;;;;;;;3.20;1.60;;;8.30;99.90;;;;;;5017272;28;20295;-82
2020/12/24 08:36:18;;;;;;;7.13;2.20;;;8.40;99.90;;;;;;5016940;28;20211;-82
2020/12/24 08:38:45;;;;;;;8.95;2.67;;;8.50;99.90;;;;;;5017088;28;20315;-82
2020/12/24 08:41:22;;;;;;;2.03;1.77;;;8.50;99.90;;;;;;5019097;28;20347;-82
2020/12/24 08:43:54;;;;;;;4.15;2.03;;;8.40;99.90;;;;;;5018459;28;20208;-82
2020/12/24 08:46:21;;;;;;;5.78;1.73;;;8.30;99.90;;;;;;5016351;28;20223;-82
2020/12/24 08:48:48;;;;;;;3.80;2.42;;;8.30;99.90;;;;;;5016982;28;20315;-82
2020/12/24 08:51:16;;;;;;;4.55;2.15;;;8.20;99.90;;;;;;5017706;28;20287;-81
2020/12/24 08:53:42;;;;;;;7.70;2.95;;;8.20;99.90;;;;;;5016588;28;20212;-81
2020/12/24 08:56:13;;;;;;;9.38;3.42;;;8.30;99.90;;;;;;5017729;28;20300;-81
2020/12/24 08:58:50;;;;;;;4.65;1.70;;;8.30;99.90;;;;;;5016571;28;20786;-81
2020/12/24 09:01:19;;;;;;;7.55;1.60;;;8.20;99.90;;;;;;5017100;28;20227;-81
2020/12/24 09:03:45;;;;;;;3.58;2.85;;;8.10;99.90;;;;;;5016798;28;20204;-82
2020/12/24 09:06:13;;;;;;;3.67;1.80;;;8.20;99.90;;;;;;5017480;28;20243;-81
2020/12/24 09:08:41;;;;;;;3.10;1.95;;;8.20;99.90;;;;;;5018261;28;20224;-82
2020/12/24 09:11:24;;;;;;;6.35;2.08;;;8.20;99.90;;;;;;5017859;28;20645;-82
2020/12/24 09:13:55;;;;;;;4.78;1.90;;;8.20;99.90;;;;;;5018598;28;20227;-82
2020/12/24 09:16:23;;;;;;;4.88;2.00;;;8.20;99.90;;;;;;5019257;28;20634;-81
2020/12/24 09:19:04;;;;;;;4.15;1.70;;;8.30;99.90;;;;;;5018624;28;20363;-81
2020/12/24 09:21:30;;;;;;;6.68;1.80;;;8.30;99.90;;;;;;5018950;28;20311;-82
2020/12/24 09:24:05;;;;;;;3.63;1.88;;;8.30;99.90;;;;;;5018420;28;20239;-82
2020/12/24 09:26:32;;;;;;;2.10;1.60;;;8.30;99.90;;;;;;5020206;28;20256;-82
2020/12/24 09:29:02;;;;;;;4.32;1.73;;;8.40;99.90;;;;;;5018316;28;20659;-81
2020/12/24 09:31:29;;;;;;;2.85;1.65;;;8.40;99.90;;;;;;5029159;28;20181;-82
2020/12/24 09:33:56;;;;;;;2.35;1.50;;;8.40;99.90;;;;;;5040930;28;20260;-81
2020/12/24 09:36:22;;;;;;;5.38;1.70;;;8.30;99.90;;;;;;5040756;28;20204;-82
2020/12/24 09:38:48;;;;;;;5.28;3.10;;;8.40;99.90;;;;;;5040919;28;20235;-82
2020/12/24 09:41:15;;;;;;;2.70;1.95;;;8.40;99.90;;;;;;5040180;28;20255;-80
2020/12/24 09:43:41;;;;;;;9.45;3.05;;;8.40;99.90;;;;;;5039314;28;20239;-80
2020/12/24 09:46:08;;;;;;;6.07;2.40;;;8.50;99.90;;;;;;5040131;28;20208;-81
2020/12/24 09:48:35;;;;;;;3.47;2.10;;;8.60;99.90;;;;;;5040036;28;20463;-82
2020/12/24 09:51:01;;;;;;;6.78;2.55;;;8.60;99.90;;;;;;5039428;28;20208;-81
2020/12/24 09:53:28;;;;;;;2.33;1.45;;;8.60;99.90;;;;;;5039818;28;20211;-82
2020/12/24 09:55:54;;;;;;;8.60;1.85;;;8.70;99.90;;;;;;5038468;28;20232;-81
2020/12/24 09:58:20;;;;;;;3.92;2.40;;;8.70;99.90;;;;;;5023104;28;20689;-81
2020/12/24 10:00:47;;;;;;;5.70;2.10;;;8.80;99.90;;;;;;5020681;28;20252;-81
2020/12/24 10:03:13;;;;;;;3.63;2.10;;;8.70;99.90;;;;;;5022558;28;20299;-81
2020/12/24 10:05:40;;;;;;;9.32;2.60;;;8.90;99.90;;;;;;5021888;28;20291;-82
2020/12/24 10:08:07;;;;;;;3.42;2.30;;;8.90;99.90;;;;;;5021927;28;20248;-82
2020/12/24 10:10:33;;;;;;;6.35;4.50;;;9.00;99.90;;;;;;5021457;28;20283;-83
2020/12/24 10:12:59;;;;;;;6.57;4.33;;;9.00;99.90;;;;;;5022788;28;20561;-82
2020/12/24 10:15:26;;;;;;;6.05;2.70;;;9.00;99.90;;;;;;5023198;28;21019;-82
2020/12/24 10:17:54;;;;;;;4.57;2.20;;;8.80;99.90;;;;;;5019477;28;20231;-82
2020/12/24 10:20:20;;;;;;;3.95;2.55;;;8.90;99.90;;;;;;5018972;28;20491;-82
2020/12/24 10:22:47;;;;;;;5.43;2.70;;;8.90;99.90;;;;;;5020439;28;20236;-82
2020/12/24 10:25:13;;;;;;;5.13;2.08;;;8.80;99.90;;;;;;5020205;28;20642;-82
2020/12/24 10:27:40;;;;;;;3.20;2.88;;;8.80;99.90;;;;;;5019910;28;20291;-82
2020/12/24 10:30:07;;;;;;;7.97;2.67;;;8.80;99.90;;;;;;5020033;28;20596;-82
2020/12/24 10:32:35;;;;;;;3.65;2.10;;;8.70;99.90;;;;;;5023419;28;20223;-82
2020/12/24 10:35:02;;;;;;;4.03;2.95;;;8.70;99.90;;;;;;5023089;28;20208;-82
2020/12/24 10:37:28;;;;;;;5.70;1.77;;;8.70;99.90;;;;;;5022940;28;20235;-82
2020/12/24 10:39:55;;;;;;;7.10;1.95;;;8.70;99.90;;;;;;5022764;28;20228;-83
2020/12/24 10:42:22;;;;;;;5.55;2.25;;;8.70;99.90;;;;;;5021930;28;20350;-82
2020/12/24 10:44:48;;;;;;;8.20;2.60;;;8.90;99.90;;;;;;5021912;28;20212;-82
2020/12/24 10:47:14;;;;;;;3.92;2.42;;;8.90;99.90;;;;;;5021570;28;20538;-83
2020/12/24 10:49:41;;;;;;;5.43;2.45;;;8.80;99.90;;;;;;5019361;28;20727;-82
2020/12/24 10:52:10;;;;;;;8.35;2.25;;;8.90;99.90;;;;;;5018491;28;20204;-83
2020/12/24 10:54:37;;;;;;;3.27;2.33;;;8.80;99.90;;;;;;5020107;28;20231;-83
2020/12/24 10:57:05;;;;;;;5.15;2.92;;;8.90;99.90;;;;;;5019304;28;20463;-83
2020/12/24 10:59:32;;;;;;;7.22;2.80;;;8.80;99.90;;;;;;5018119;28;20269;-83
2020/12/24 11:01:58;;;;;;;5.78;2.83;;;8.80;99.90;;;;;;5018504;28;20714;-82
2020/12/24 11:04:24;;;;;;;6.28;2.15;;;8.80;99.90;;;;;;5018577;28;20207;-83
2020/12/24 11:06:51;;;;;;;5.18;2.53;;;8.60;99.90;;;;;;5018700;28;20258;-82
2020/12/24 11:09:17;;;;;;;3.85;2.55;;;8.60;99.90;;;;;;5020826;28;20260;-82
2020/12/24 11:11:44;;;;;;;2.35;1.90;;;8.40;99.90;;;;;;5037145;28;20201;-82
2020/12/24 11:14:11;;;;;;;9.02;2.33;;;8.30;99.90;;;;;;5035217;28;20228;-81
2020/12/24 11:16:38;;;;;;;2.78;1.60;;;8.20;99.90;;;;;;5021557;28;20556;-81
2020/12/24 11:19:04;;;;;;;4.25;2.03;;;8.10;99.90;;;;;;5019270;28;20362;-82
2020/12/24 11:21:31;;;;;;;4.60;2.75;;;8.10;99.90;;;;;;5019494;28;20220;-82
2020/12/24 11:24:04;;;;;;;5.80;1.60;;;8.10;99.90;;;;;;5019411;28;20292;-82
2020/12/24 11:26:31;;;;;;;1.63;1.27;;;8.00;99.90;;;;;;5019571;28;20196;-82
2020/12/24 11:28:57;;;;;;;3.30;1.60;;;7.90;99.90;;;;;;5019724;28;20239;-82
2020/12/24 11:31:25;;;;;;;2.55;1.42;;;7.80;99.90;;;;;;5019419;28;20292;-82
2020/12/24 11:33:52;;;;;;;2.85;1.55;;;7.70;99.90;;;;;;5018608;28;20216;-81
2020/12/24 11:36:19;;;;;;;2.60;1.38;;;7.60;99.90;;;;;;5017108;28;20631;-82
2020/12/24 11:38:45;;;;;;;1.60;1.02;;;7.60;99.90;;;;;;5016464;28;20808;-82
2020/12/24 11:41:16;;;;;;;1.00;1.00;;;7.50;99.90;;;;;;5016511;28;20224;-81
2020/12/24 11:43:42;;;;;;;1.27;1.17;;;7.40;99.90;;;;;;5017264;28;20577;-82
2020/12/24 11:46:10;;;;;;;2.15;1.20;;;7.30;99.90;;;;;;5019542;28;20235;-82
2020/12/24 11:48:37;;;;;;;0.80;0.80;;;7.40;99.90;;;;;;5026850;28;20240;-82
2020/12/24 11:51:06;;;;;;;1.20;1.10;;;7.20;99.90;;;;;;5022275;28;20208;-82
2020/12/24 11:53:32;;;;;;;2.10;2.00;;;7.20;99.90;;;;;;5019662;28;20296;-82
2020/12/24 11:55:59;;;;;;;1.40;1.30;;;7.20;99.90;;;;;;5017693;28;20257;-82
2020/12/24 11:58:25;;;;;;;1.30;1.20;;;7.20;99.90;;;;;;5018987;28;20260;-82
2020/12/24 12:00:52;;;;;;;1.20;1.10;;;7.20;99.90;;;;;;5023502;28;20223;-82
2020/12/24 12:03:18;;;;;;;1.30;1.20;;;7.20;99.90;;;;;;5021776;28;20205;-82
2020/12/24 12:05:45;;;;;;;1.00;1.00;;;7.10;99.90;;;;;;5018915;28;20274;-82
2020/12/24 12:08:12;;;;;;;1.95;0.98;;;7.00;99.90;;;;;;5021651;28;20471;-82
2020/12/24 12:10:38;;;;;;;1.10;1.10;;;6.90;99.90;;;;;;5020205;28;20197;-82
2020/12/24 12:13:05;;;;;;;1.02;1.00;;;7.00;99.90;;;;;;5018231;28;20695;-82
2020/12/24 12:15:31;;;;;;;1.30;1.20;;;6.90;99.90;;;;;;5018448;28;20212;-82
2020/12/24 12:17:58;;;;;;;1.40;1.30;;;6.80;99.90;;;;;;5018984;28;20207;-82
2020/12/24 12:20:25;;;;;;;1.25;1.15;;;6.80;99.90;;;;;;5019248;28;20240;-81
2020/12/24 12:22:52;;;;;;;1.30;1.20;;;6.60;99.90;;;;;;5023921;28;20208;-82
2020/12/24 12:25:19;;;;;;;1.48;1.30;;;6.60;99.90;;;;;;5022065;28;20446;-82
2020/12/24 12:27:47;;;;;;;1.48;1.38;;;6.60;99.90;;;;;;5016579;28;20232;-83
2020/12/24 12:30:13;;;;;;;2.55;1.58;;;6.50;99.90;;;;;;5017475;28;20204;-83
2020/12/24 12:32:40;;;;;;;1.30;1.05;;;6.50;99.90;;;;;;5025271;28;20246;-82
2020/12/24 12:35:06;;;;;;;1.00;0.80;;;6.60;99.90;;;;;;5034077;28;20462;-82
2020/12/24 12:37:34;;;;;;;1.27;1.17;;;6.60;99.90;;;;;;5036783;28;20235;-82
2020/12/24 12:40:01;;;;;;;2.40;2.20;;;6.60;99.90;;;;;;5037252;28;20284;-82
2020/12/24 12:42:27;;;;;;;1.75;1.55;;;6.60;99.90;;;;;;5036595;28;20208;-80
2020/12/24 12:44:54;;;;;;;2.45;1.50;;;6.60;99.90;;;;;;5036861;28;20215;-80
2020/12/24 12:47:20;;;;;;;2.17;1.58;;;6.60;99.90;;;;;;5036282;28;20232;-80
2020/12/24 12:49:47;;;;;;;3.90;2.70;;;6.50;99.90;;;;;;5037720;28;20266;-81
2020/12/24 12:52:13;;;;;;;1.88;1.77;;;6.50;99.90;;;;;;5037377;28;20199;-81
2020/12/24 12:54:40;;;;;;;2.35;1.58;;;6.50;99.90;;;;;;5036048;28;20200;-81
2020/12/24 12:57:07;;;;;;;1.30;1.20;;;6.30;99.90;;;;;;5036856;28;20212;-81